Time;durP1;ratioP1;P1;durP2;ratioP2;P2;SDS_P1;SDS_P2;PMS_P1;PMS_P2;Temp;Humidity;BMP_temperature;BMP_pressure;BME280_temperature;BME280_humidity;BME280_pressure;Samples;Min_cycle;Max_cycle;Signal;HPM_P1;HPM_P2
2022/06/27 00:01:03;;;;;;;18.10;16.33;;;;;;;18.88;100.00;100659.81;5005527;28;20075;-78
2022/06/27 00:03:30;;;;;;;18.35;16.70;;;;;;;18.90;100.00;100659.72;5002543;28;20037;-77
2022/06/27 00:05:57;;;;;;;17.90;16.05;;;;;;;18.82;100.00;100649.44;5044894;28;20045;-78
2022/06/27 00:08:23;;;;;;;19.30;17.40;;;;;;;18.76;100.00;100650.66;5019016;28;20040;-77
2022/06/27 00:10:50;;;;;;;18.83;17.02;;;;;;;18.74;100.00;100649.00;5011265;28;20037;-80
2022/06/27 00:13:17;;;;;;;18.80;16.90;;;;;;;18.72;100.00;100642.88;5033811;28;20069;-78
2022/06/27 00:15:44;;;;;;;19.25;17.35;;;;;;;18.69;100.00;100645.72;5000421;28;20049;-79
2022/06/27 00:18:11;;;;;;;18.13;16.35;;;;;;;18.64;100.00;100647.72;5017252;28;20057;-78
2022/06/27 00:20:37;;;;;;;17.63;15.98;;;;;;;18.56;100.00;100651.69;5017364;28;20045;-77
2022/06/27 00:23:04;;;;;;;17.50;15.80;;;;;;;18.59;100.00;100650.69;5001721;28;20042;-80
2022/06/27 00:25:31;;;;;;;17.42;15.80;;;;;;;18.56;100.00;100651.69;4989953;28;20133;-79
2022/06/27 00:27:57;;;;;;;18.63;16.83;;;;;;;18.55;100.00;100649.09;5004753;28;20146;-78
2022/06/27 00:30:24;;;;;;;17.77;15.98;;;;;;;18.53;100.00;100651.84;5018014;28;20052;-80
2022/06/27 00:32:51;;;;;;;17.15;15.48;;;;;;;18.47;100.00;100654.84;5002455;28;20041;-79
2022/06/27 00:35:17;;;;;;;17.13;15.52;;;;;;;18.46;100.00;100665.63;4986978;28;20046;-78
2022/06/27 00:37:44;;;;;;;18.13;16.42;;;;;;;18.54;100.00;100666.09;5000230;28;20617;-79
2022/06/27 00:40:11;;;;;;;18.05;16.25;;;;;;;18.45;100.00;100667.44;4985444;28;20546;-78
2022/06/27 00:42:38;;;;;;;18.63;16.85;;;;;;;18.45;100.00;100674.63;4982050;28;20414;-78
2022/06/27 00:45:06;;;;;;;18.15;16.35;;;;;;;18.36;100.00;100673.28;5000990;28;20133;-78
2022/06/27 00:47:32;;;;;;;16.58;14.98;;;;;;;18.31;100.00;100691.38;5000809;28;20553;-79
2022/06/27 00:49:59;;;;;;;17.80;16.10;;;;;;;18.33;100.00;100684.16;5020582;28;20045;-79
2022/06/27 00:52:26;;;;;;;17.73;16.02;;;;;;;18.27;100.00;100680.00;5020458;28;20046;-77
2022/06/27 00:54:53;;;;;;;18.15;16.33;;;;;;;18.29;100.00;100679.91;5016723;28;20049;-79
2022/06/27 00:57:20;;;;;;;19.30;17.42;;;;;;;18.27;100.00;100685.34;5035679;28;20037;-79
2022/06/27 00:59:47;;;;;;;19.98;18.08;;;;;;;18.26;100.00;100680.06;5041678;23;20064;-84
2022/06/27 01:02:14;;;;;;;19.00;17.23;;;;;;;18.23;100.00;100677.53;4962322;28;20073;-84
2022/06/27 01:04:43;;;;;;;20.13;18.13;;;;;;;18.22;100.00;100670.47;4970524;28;20045;-84
2022/06/27 01:07:10;;;;;;;18.13;16.33;;;;;;;18.20;100.00;100675.91;4971409;28;20411;-84
2022/06/27 01:09:41;;;;;;;19.45;17.45;;;;;;;18.25;100.00;100675.69;4975313;28;20063;-84
2022/06/27 01:12:08;;;;;;;17.85;16.05;;;;;;;18.16;100.00;100674.34;4968806;28;20552;-84
2022/06/27 01:14:35;;;;;;;18.08;16.42;;;;;;;18.10;100.00;100671.97;4953629;28;20046;-84
2022/06/27 01:17:02;;;;;;;20.17;18.20;;;;;;;18.10;100.00;100671.97;4942333;28;20049;-84
2022/06/27 01:19:28;;;;;;;19.05;17.23;;;;;;;18.07;100.00;100663.22;4949935;28;20121;-84
2022/06/27 01:21:56;;;;;;;19.25;17.45;;;;;;;18.06;100.00;100658.81;4961024;28;20065;-84
2022/06/27 01:24:25;;;;;;;19.92;17.95;;;;;;;18.01;100.00;100667.09;4956887;28;20045;-84
2022/06/27 01:26:53;;;;;;;19.73;17.77;;;;;;;18.02;100.00;100670.63;4986992;28;20073;-85
2022/06/27 01:29:20;;;;;;;21.25;19.17;;;;;;;17.92;100.00;100665.75;4969456;28;20061;-85
2022/06/27 01:31:47;;;;;;;18.23;16.42;;;;;;;17.88;100.00;100668.66;4963829;28;20038;-85
2022/06/27 01:34:15;;;;;;;18.55;16.80;;;;;;;17.83;100.00;100671.56;4973568;28;20830;-86
2022/06/27 01:36:41;;;;;;;18.75;16.98;;;;;;;17.81;100.00;100667.22;4963739;28;20046;-85
2022/06/27 01:39:15;;;;;;;17.95;16.27;;;;;;;17.76;100.00;100667.47;4953203;28;20051;-85
2022/06/27 01:41:48;;;;;;;19.02;17.02;;;;;;;17.77;100.00;100663.84;4992836;28;20042;-85
2022/06/27 01:44:15;;;;;;;17.90;16.30;;;;;;;17.76;100.00;100663.94;4959370;28;20058;-85
2022/06/27 01:46:45;;;;;;;19.55;17.65;;;;;;;17.75;100.00;100659.53;4977671;28;20045;-84
2022/06/27 01:49:14;;;;;;;19.00;17.15;;;;;;;17.71;100.00;100665.03;4964180;28;20785;-86
2022/06/27 01:51:42;;;;;;;18.63;16.83;;;;;;;17.70;100.00;100667.78;4959724;28;21274;-86
2022/06/27 01:54:10;;;;;;;20.15;18.25;;;;;;;17.74;100.00;100666.69;4970629;28;20050;-87
2022/06/27 01:56:37;;;;;;;20.25;18.33;;;;;;;17.69;100.00;100669.56;4972639;28;20046;-86
2022/06/27 01:59:04;;;;;;;17.80;16.10;;;;;;;17.73;100.00;100664.94;4968238;28;20054;-85
2022/06/27 02:01:30;;;;;;;20.98;18.98;;;;;;;17.71;100.00;100665.03;4958952;28;20525;-85
2022/06/27 02:03:59;;;;;;;19.58;17.38;;;;;;;17.63;100.00;100677.84;4959384;28;20503;-84
2022/06/27 02:06:28;;;;;;;20.70;18.60;;;;;;;17.64;100.00;100668.91;4976001;28;20097;-85
2022/06/27 02:08:57;;;;;;;19.17;17.27;;;;;;;17.57;100.00;100666.59;4977833;28;20095;-86
2022/06/27 02:11:25;;;;;;;18.25;16.52;;;;;;;17.52;100.00;100665.97;4965027;28;20046;-84
2022/06/27 02:13:54;;;;;;;18.27;16.67;;;;;;;17.49;100.00;100663.44;4979880;28;20046;-85
2022/06/27 02:16:21;;;;;;;18.83;17.02;;;;;;;17.51;100.00;100661.59;4962939;28;20106;-87
2022/06/27 02:18:49;;;;;;;17.20;15.70;;;;;;;17.48;100.00;100664.38;4954230;28;20041;-85
2022/06/27 02:21:19;;;;;;;19.05;17.15;;;;;;;17.45;100.00;100662.75;4979031;28;20127;-85
2022/06/27 02:23:46;;;;;;;17.58;15.77;;;;;;;17.44;100.00;100671.69;4992701;28;20587;-86
2022/06/27 02:26:14;;;;;;;19.02;17.13;;;;;;;17.49;100.00;100669.69;4991023;28;20081;-85
2022/06/27 02:28:42;;;;;;;19.88;17.88;;;;;;;17.47;100.00;100662.66;4978875;28;20034;-85
2022/06/27 02:31:10;;;;;;;19.45;17.50;;;;;;;17.45;100.00;100671.63;4962995;28;20045;-84
2022/06/27 02:33:40;;;;;;;20.77;18.67;;;;;;;17.47;100.00;100670.66;4979003;28;20034;-85
2022/06/27 02:36:10;;;;;;;22.45;18.40;;;;;;;17.44;100.00;100677.03;4978381;28;20053;-85
2022/06/27 02:38:40;;;;;;;20.00;18.00;;;;;;;17.42;100.00;100677.13;4983783;28;20038;-86
2022/06/27 02:41:10;;;;;;;18.42;16.73;;;;;;;17.38;100.00;100680.84;4975315;28;20134;-84
2022/06/27 02:43:39;;;;;;;19.42;17.48;;;;;;;17.39;100.00;100679.06;4990392;28;20384;-86
2022/06/27 02:46:06;;;;;;;19.75;17.75;;;;;;;17.38;100.00;100685.34;4962076;28;20108;-84
2022/06/27 02:48:33;;;;;;;19.13;17.33;;;;;;;17.34;100.00;100687.31;4976806;28;20514;-85
2022/06/27 02:51:04;;;;;;;20.17;18.20;;;;;;;17.38;100.00;100680.84;4974791;28;20049;-85
2022/06/27 02:53:34;;;;;;;21.00;18.90;;;;;;;17.41;100.00;100683.41;4979932;28;20038;-85
2022/06/27 02:56:03;;;;;;;20.23;18.23;;;;;;;17.32;100.00;100686.53;4959372;28;20049;-85
2022/06/27 02:58:51;;;;;;;20.73;18.67;;;;;;;17.35;100.00;100691.69;4973842;28;20065;-85
2022/06/27 03:01:19;;;;;;;20.13;18.23;;;;;;;17.38;100.00;100688.88;4962041;28;20088;-84
2022/06/27 03:03:48;;;;;;;20.02;18.13;;;;;;;17.35;100.00;100693.50;4959029;28;20038;-84
2022/06/27 03:06:15;;;;;;;20.85;18.77;;;;;;;17.34;100.00;100686.44;4977493;28;20042;-85
2022/06/27 03:08:46;;;;;;;21.38;19.17;;;;;;;17.37;100.00;100695.16;4978200;28;20038;-85
2022/06/27 03:11:19;;;;;;;19.35;17.55;;;;;;;17.41;100.00;100698.56;4979941;28;20057;-84
2022/06/27 03:13:46;;;;;;;20.08;18.13;;;;;;;17.37;100.00;100691.63;4974178;28;20045;-84
2022/06/27 03:16:14;;;;;;;19.80;17.83;;;;;;;17.41;100.00;100688.75;4965787;28;20403;-83
2022/06/27 03:18:42;;;;;;;19.63;17.58;;;;;;;17.42;100.00;100685.13;4995375;28;20105;-85
2022/06/27 03:21:08;;;;;;;20.98;19.00;;;;;;;17.47;100.00;100686.69;4962807;28;20061;-84
2022/06/27 03:23:35;;;;;;;19.85;17.95;;;;;;;17.47;100.00;100686.69;4962320;28;20072;-84
2022/06/27 03:26:02;;;;;;;19.88;18.08;;;;;;;17.49;100.00;100684.81;4973258;28;20503;-84
2022/06/27 03:28:29;;;;;;;20.27;18.27;;;;;;;17.50;100.00;100679.41;4980479;28;20045;-85
2022/06/27 03:30:55;;;;;;;19.75;17.95;;;;;;;17.52;100.00;100674.84;4959289;28;20046;-85
2022/06/27 03:33:23;;;;;;;19.58;17.67;;;;;;;17.56;100.00;100679.09;4994221;28;20045;-85
2022/06/27 03:35:50;;;;;;;19.20;17.35;;;;;;;17.54;100.00;100682.78;4963754;28;20040;-85
2022/06/27 03:38:17;;;;;;;20.65;18.70;;;;;;;17.61;100.00;100677.06;4987382;28;20064;-85
2022/06/27 03:40:43;;;;;;;20.05;18.10;;;;;;;17.64;100.00;100687.59;4962604;28;20042;-86
2022/06/27 03:43:10;;;;;;;20.48;18.58;;;;;;;17.68;100.00;100691.00;4973212;28;20042;-85
2022/06/27 03:45:38;;;;;;;19.45;17.60;;;;;;;17.71;100.00;100690.88;4979734;28;20081;-84
2022/06/27 03:48:05;;;;;;;18.98;17.17;;;;;;;17.70;100.00;100690.00;4964462;28;20049;-85
2022/06/27 03:50:32;;;;;;;19.17;17.40;;;;;;;17.78;100.00;100684.28;4978383;28;20125;-84
2022/06/27 03:52:59;;;;;;;18.73;16.92;;;;;;;17.83;100.00;100679.59;4961933;28;20046;-85
2022/06/27 03:55:26;;;;;;;21.02;18.80;;;;;;;17.86;100.00;100679.44;4962436;28;20038;-84
2022/06/27 03:57:55;;;;;;;19.90;18.00;;;;;;;17.88;100.00;100682.88;4962826;28;20050;-84
2022/06/27 04:00:23;;;;;;;18.80;17.08;;;;;;;17.88;100.00;100680.22;4971291;28;20491;-84
2022/06/27 04:02:51;;;;;;;19.92;17.88;;;;;;;17.96;100.00;100680.69;5013510;28;20104;-85
2022/06/27 04:05:18;;;;;;;19.33;17.42;;;;;;;17.97;100.00;100678.88;4977690;28;20046;-84
2022/06/27 04:07:45;;;;;;;20.13;18.23;;;;;;;18.05;100.00;100676.69;4959287;28;20044;-85
2022/06/27 04:10:13;;;;;;;19.38;17.58;;;;;;;18.09;100.00;100672.06;4969889;28;20052;-85
2022/06/27 04:12:42;;;;;;;19.13;17.25;;;;;;;18.17;100.00;100676.06;4959945;28;20066;-84
2022/06/27 04:15:10;;;;;;;20.23;18.15;;;;;;;18.22;100.00;100675.81;4979182;28;20384;-85
2022/06/27 04:17:37;;;;;;;18.02;16.33;;;;;;;18.26;100.00;100678.25;4977502;28;20516;-85
2022/06/27 04:20:05;;;;;;;18.05;16.35;;;;;;;18.32;100.00;100690.44;4961366;28;20037;-86
2022/06/27 04:22:36;;;;;;;18.38;16.55;;;;;;;18.36;100.00;100678.63;4984651;28;20070;-84
2022/06/27 04:25:04;;;;;;;18.48;16.70;;;;;;;18.43;100.00;100692.56;4959772;28;20088;-84
2022/06/27 04:27:31;;;;;;;18.55;16.75;;;;;;;18.50;100.00;100683.28;4973600;28;20045;-85
2022/06/27 04:29:57;;;;;;;18.80;17.00;;;;;;;18.55;100.00;100690.09;4957169;28;20064;-85
2022/06/27 04:32:25;;;;;;;18.45;16.60;;;;;;;18.59;100.00;100690.81;4954331;28;20039;-85
2022/06/27 04:34:52;;;;;;;18.00;16.40;;;;;;;18.63;100.00;100688.81;4960939;28;20034;-84
2022/06/27 04:37:19;;;;;;;20.10;18.23;;;;;;;18.71;100.00;100694.66;4976744;28;20517;-85
2022/06/27 04:39:45;;;;;;;18.35;16.65;;;;;;;18.75;100.00;100686.41;4957852;28;20124;-85
2022/06/27 04:42:13;;;;;;;18.90;17.05;;;;;;;18.87;100.00;100689.34;4980851;28;20085;-84
2022/06/27 04:44:40;;;;;;;18.27;16.45;;;;;;;18.92;100.00;100687.28;4970599;28;20069;-84
2022/06/27 04:47:12;;;;;;;19.45;17.60;;;;;;;19.02;100.00;100681.34;4955055;28;20052;-84
2022/06/27 04:49:42;;;;;;;18.98;17.25;;;;;;;18.99;100.00;100680.63;4979558;28;20054;-84
2022/06/27 04:52:09;;;;;;;18.85;17.02;;;;;;;19.09;100.00;100679.22;4976178;28;20041;-83
2022/06/27 04:54:39;;;;;;;19.85;17.90;;;;;;;19.08;100.00;100677.44;4958913;28;20042;-84
2022/06/27 04:57:07;;;;;;;17.42;15.82;;;;;;;19.11;100.00;100678.16;4978947;28;20168;-84
2022/06/27 04:59:33;;;;;;;16.92;15.35;;;;;;;19.17;100.00;100674.28;4990378;28;20037;-84
2022/06/27 05:02:00;;;;;;;18.95;16.95;;;;;;;19.25;100.00;100672.00;4977953;28;20400;-83
2022/06/27 05:04:29;;;;;;;18.98;17.08;;;;;;;19.35;100.00;100669.72;4974488;28;20050;-83
2022/06/27 05:06:56;;;;;;;18.52;16.83;;;;;;;19.41;100.00;100666.66;4958183;28;20117;-84
2022/06/27 05:09:24;;;;;;;19.25;17.17;;;;;;;19.46;100.00;100667.28;4988867;28;20038;-84
2022/06/27 05:11:56;;;;;;;16.75;15.27;;;;;;;19.53;100.00;100663.28;4953628;28;20054;-84
2022/06/27 05:14:24;;;;;;;17.33;15.65;;;;;;;19.60;100.00;100663.84;4955996;28;20053;-83
2022/06/27 05:16:51;;;;;;;17.27;15.60;;;;;;;19.80;100.00;100670.72;4958581;28;20048;-83
2022/06/27 05:19:17;;;;;;;17.55;15.82;;;;;;;20.39;100.00;100666.28;4979407;28;20052;-82
2022/06/27 05:21:44;;;;;;;15.90;14.57;;;;;;;20.91;100.00;100657.69;4958113;28;20044;-83
2022/06/27 05:24:11;;;;;;;15.68;14.38;;;;;;;21.08;100.00;100661.00;4973767;28;20799;-82
2022/06/27 05:26:38;;;;;;;15.98;14.38;;;;;;;21.05;100.00;100658.53;4974165;28;20064;-83
2022/06/27 05:29:08;;;;;;;15.07;13.75;;;;;;;21.08;100.00;100655.63;4970482;28;20050;-83
2022/06/27 05:31:35;;;;;;;15.05;13.75;;;;;;;21.04;100.00;100656.81;4953500;28;20050;-82
2022/06/27 05:34:01;;;;;;;15.07;13.68;;;;;;;21.06;100.00;100665.63;4969423;28;20034;-82
2022/06/27 05:36:28;;;;;;;14.98;13.48;;;;;;;21.21;100.00;100660.25;4961329;28;20094;-82
2022/06/27 05:38:55;;;;;;;15.13;13.73;;;;;;;21.49;100.00;100662.00;4974024;28;20788;-81
2022/06/27 05:41:22;;;;;;;13.80;12.52;;;;;;;22.10;100.00;100656.09;4975013;28;20049;-81
2022/06/27 05:43:49;;;;;;;13.43;12.13;;;;;;;24.29;100.00;100659.84;4955105;28;20046;-82
2022/06/27 05:46:16;;;;;;;12.32;11.23;;;;;;;26.82;83.79;100661.44;4959193;28;20050;-82
2022/06/27 05:48:44;;;;;;;10.90;9.98;;;;;;;28.90;70.61;100663.91;4989785;28;20507;-82
2022/06/27 05:51:12;;;;;;;10.43;9.63;;;;;;;30.29;65.00;100661.69;4968789;28;20078;-81
2022/06/27 05:53:43;;;;;;;10.35;9.55;;;;;;;31.99;55.99;100659.91;4939604;28;20126;-83
2022/06/27 05:56:10;;;;;;;10.85;9.98;;;;;;;32.49;53.43;100665.19;4966334;28;20099;-82
2022/06/27 05:58:38;;;;;;;9.85;9.05;;;;;;;33.03;50.32;100665.41;4956523;28;20042;-82
2022/06/27 06:01:06;;;;;;;9.40;8.70;;;;;;;33.30;51.29;100664.97;4986139;28;20049;-82
2022/06/27 06:03:33;;;;;;;10.10;9.20;;;;;;;32.93;51.60;100660.16;4984812;28;20165;-83
2022/06/27 06:06:00;;;;;;;9.52;8.73;;;;;;;33.41;49.87;100661.00;4969475;28;20061;-83
2022/06/27 06:08:27;;;;;;;9.43;8.57;;;;;;;32.48;53.30;100666.22;4969038;28;20038;-83
2022/06/27 06:10:54;;;;;;;10.07;9.27;;;;;;;31.57;56.92;100661.69;4991512;28;20060;-84
2022/06/27 06:13:22;;;;;;;10.77;9.88;;;;;;;31.26;54.83;100666.88;4958585;28;20049;-83
2022/06/27 06:15:49;;;;;;;10.40;9.45;;;;;;;30.37;59.20;100666.34;4957231;28;20064;-83
2022/06/27 06:18:17;;;;;;;10.52;9.43;;;;;;;30.23;59.89;100660.44;4974594;28;20511;-85
2022/06/27 06:20:44;;;;;;;10.77;9.95;;;;;;;29.68;65.27;100666.06;4972721;28;20797;-85
2022/06/27 06:23:11;;;;;;;10.15;9.32;;;;;;;29.79;59.74;100661.41;4974465;28;20046;-83
2022/06/27 06:25:38;;;;;;;10.25;9.35;;;;;;;29.54;61.68;100665.75;4954501;28;20038;-83
2022/06/27 06:28:07;;;;;;;10.88;9.93;;;;;;;29.55;59.26;100660.13;4969663;28;20065;-84
2022/06/27 06:30:35;;;;;;;10.63;9.57;;;;;;;29.38;62.19;100658.22;4966468;28;20061;-84
2022/06/27 06:33:04;;;;;;;10.00;9.30;;;;;;;29.25;66.78;100672.16;4973629;28;20053;-85
2022/06/27 06:35:32;;;;;;;10.55;9.65;;;;;;;29.17;65.54;100659.31;4959196;28;20088;-84
2022/06/27 06:38:00;;;;;;;10.88;9.90;;;;;;;29.22;67.04;100661.59;4974575;28;20046;-84
2022/06/27 06:40:27;;;;;;;9.10;8.40;;;;;;;29.33;68.19;100660.53;4972584;28;20162;-85
2022/06/27 06:43:01;;;;;;;9.60;8.80;;;;;;;29.56;60.46;100663.72;4959965;28;20136;-85
2022/06/27 06:45:29;;;;;;;9.63;8.85;;;;;;;29.57;64.99;100666.28;4956644;28;20038;-84
2022/06/27 06:47:57;;;;;;;9.75;8.95;;;;;;;29.88;63.26;100658.59;4973338;28;20044;-84
2022/06/27 06:50:23;;;;;;;10.63;9.82;;;;;;;30.02;64.30;100668.09;4954195;28;20406;-84
2022/06/27 06:52:52;;;;;;;11.13;10.05;;;;;;;30.06;62.17;100661.31;4966097;28;20460;-84
2022/06/27 06:55:21;;;;;;;10.52;9.55;;;;;;;29.95;63.01;100664.28;4990791;28;20049;-84
2022/06/27 06:57:49;;;;;;;8.95;8.25;;;;;;;30.02;56.04;100662.66;4987727;28;20100;-84
2022/06/27 07:00:17;;;;;;;9.40;8.60;;;;;;;29.91;53.29;100665.59;4988296;28;20070;-84
2022/06/27 07:02:48;;;;;;;8.90;8.30;;;;;;;30.21;58.35;100664.34;4953049;28;20061;-84
2022/06/27 07:05:19;;;;;;;9.95;9.05;;;;;;;30.04;53.62;100667.94;4975978;28;20105;-83
2022/06/27 07:07:50;;;;;;;8.95;8.10;;;;;;;30.26;54.84;100653.81;4967014;28;20042;-85
2022/06/27 07:10:18;;;;;;;9.43;8.50;;;;;;;30.63;56.91;100652.72;4975527;28;20055;-84
2022/06/27 07:12:48;;;;;;;9.35;8.55;;;;;;;30.70;52.20;100651.94;4996194;28;20072;-83
2022/06/27 07:15:17;;;;;;;9.98;9.05;;;;;;;30.56;54.66;100652.50;4963605;28;20129;-84
2022/06/27 07:17:46;;;;;;;9.07;8.38;;;;;;;30.73;55.54;100648.88;4972130;28;20530;-85
2022/06/27 07:20:14;;;;;;;8.80;8.10;;;;;;;31.04;55.14;100656.56;4960659;28;20080;-83
2022/06/27 07:22:42;;;;;;;9.35;8.43;;;;;;;31.13;50.69;100650.09;4977672;28;20056;-84
2022/06/27 07:25:09;;;;;;;9.07;8.15;;;;;;;31.42;52.97;100646.13;4969700;28;20043;-84
2022/06/27 07:27:39;;;;;;;8.05;7.35;;;;;;;31.50;48.90;100638.81;4972749;28;20849;-84
2022/06/27 07:30:09;;;;;;;11.95;8.02;;;;;;;31.48;48.34;100637.28;4976140;28;20112;-85
2022/06/27 07:32:37;;;;;;;9.35;7.70;;;;;;;31.47;48.47;100638.28;4991960;28;20045;-84
2022/06/27 07:35:04;;;;;;;8.35;7.75;;;;;;;31.61;48.62;100634.88;4956249;28;20034;-83
2022/06/27 07:37:44;;;;;;;7.75;7.15;;;;;;;31.50;46.38;100632.50;4974834;28;20081;-84
2022/06/27 07:40:16;;;;;;;7.82;7.13;;;;;;;31.64;48.01;100631.84;4976247;28;20046;-84
2022/06/27 07:42:48;;;;;;;7.57;6.95;;;;;;;32.13;50.47;100623.69;4977986;28;20049;-84
2022/06/27 07:45:24;;;;;;;8.23;7.57;;;;;;;32.14;46.45;100628.13;4948927;28;20539;-85
2022/06/27 07:47:52;;;;;;;7.63;7.07;;;;;;;32.45;47.40;100620.91;4974680;28;20510;-84
2022/06/27 07:50:37;;;;;;;8.25;7.45;;;;;;;32.57;46.50;100615.09;4944171;28;20042;-84
2022/06/27 07:53:12;;;;;;;7.47;6.88;;;;;;;32.10;42.85;100622.13;4990530;28;20046;-83
2022/06/27 07:55:41;;;;;;;7.50;6.88;;;;;;;32.21;45.73;100616.34;4976695;28;20034;-84
2022/06/27 07:58:09;;;;;;;7.10;6.60;;;;;;;32.46;44.54;100624.53;4976811;28;20046;-83
2022/06/27 08:00:36;;;;;;;7.82;6.82;;;;;;;32.64;42.87;100619.69;4974345;28;20046;-82
2022/06/27 08:03:36;;;;;;;6.53;5.93;;;;;;;32.96;45.23;100618.75;4977352;28;20839;-83
2022/06/27 08:05:50;;;;;;;7.10;6.55;;;;;;;33.22;40.41;100620.34;4977252;28;20039;-84
2022/06/27 08:08:17;;;;;;;7.60;6.97;;;;;;;33.23;41.86;100620.16;4972599;28;20041;-85
2022/06/27 08:10:44;;;;;;;7.32;6.72;;;;;;;32.95;42.98;100622.50;4961551;28;20046;-85
2022/06/27 08:13:11;;;;;;;7.15;6.55;;;;;;;33.13;43.48;100615.91;4992741;28;20117;-84
2022/06/27 08:15:38;;;;;;;6.97;6.38;;;;;;;33.41;42.94;100619.06;4975625;28;20042;-84
2022/06/27 08:18:07;;;;;;;7.70;7.10;;;;;;;33.47;42.59;100623.81;4960945;28;20042;-84
2022/06/27 08:20:35;;;;;;;8.80;7.07;;;;;;;33.51;45.63;100626.00;4952385;28;20052;-83
2022/06/27 08:23:02;;;;;;;6.95;6.45;;;;;;;33.58;41.87;100629.72;4976184;28;20046;-84
2022/06/27 08:25:30;;;;;;;8.15;6.40;;;;;;;33.14;41.28;100621.25;4957267;28;20073;-84
2022/06/27 08:27:57;;;;;;;6.90;6.38;;;;;;;33.39;42.42;100624.72;4972659;28;20141;-84
2022/06/27 08:30:25;;;;;;;7.60;7.05;;;;;;;33.56;40.77;100628.22;4972816;28;20802;-83
2022/06/27 08:32:55;;;;;;;7.72;7.13;;;;;;;33.68;41.45;100626.75;4971934;28;20061;-84
2022/06/27 08:35:24;;;;;;;6.78;6.28;;;;;;;33.96;40.36;100621.56;4990633;28;20038;-83
2022/06/27 08:37:50;;;;;;;6.90;6.30;;;;;;;34.31;40.79;100624.72;5001001;28;20041;-83
2022/06/27 08:40:18;;;;;;;7.82;7.22;;;;;;;34.02;41.72;100612.63;4963757;28;20049;-84
2022/06/27 08:42:48;;;;;;;7.40;6.90;;;;;;;34.28;40.32;100611.34;4970535;28;20054;-84
2022/06/27 08:45:23;;;;;;;7.55;6.85;;;;;;;34.48;38.49;100607.06;4977055;28;20038;-84
2022/06/27 08:47:58;;;;;;;10.43;6.93;;;;;;;34.76;38.01;100607.25;4961283;28;20038;-85
2022/06/27 08:50:28;;;;;;;6.97;6.38;;;;;;;35.17;40.05;100613.09;4975322;28;20201;-84
2022/06/27 08:52:58;;;;;;;7.93;7.32;;;;;;;35.50;39.67;100602.53;4972436;28;20486;-85
2022/06/27 08:55:25;;;;;;;7.20;6.63;;;;;;;35.63;38.41;100599.03;4982293;28;20614;-83
2022/06/27 08:57:52;;;;;;;7.47;6.90;;;;;;;35.74;36.82;100604.03;4972689;28;20042;-85
2022/06/27 09:00:22;;;;;;;7.25;6.75;;;;;;;35.24;35.49;100596.72;4990530;28;20045;-84
2022/06/27 09:02:51;;;;;;;6.68;6.18;;;;;;;34.81;36.90;100596.56;4967600;28;20050;-84
2022/06/27 09:05:26;;;;;;;7.22;6.72;;;;;;;34.47;35.84;100590.78;4953815;28;20057;-83
2022/06/27 09:07:59;;;;;;;7.22;6.63;;;;;;;34.53;36.51;100603.75;4973412;28;20503;-83
2022/06/27 09:10:30;;;;;;;6.50;6.00;;;;;;;34.51;36.51;100603.94;4969567;28;20053;-82
2022/06/27 09:13:15;;;;;;;7.55;6.82;;;;;;;33.95;38.57;100583.38;4991053;28;20070;-84
2022/06/27 09:15:45;;;;;;;6.53;6.03;;;;;;;34.11;36.75;100581.34;4962001;28;20030;-84
2022/06/27 09:18:13;;;;;;;7.65;6.38;;;;;;;34.68;39.72;100591.72;4979862;28;20045;-84
2022/06/27 09:20:58;;;;;;;6.32;5.80;;;;;;;34.80;35.72;100583.00;4961436;28;20105;-83
2022/06/27 09:23:53;;;;;;;6.57;6.05;;;;;;;34.55;35.67;100582.44;4976115;28;20454;-83
2022/06/27 09:26:26;;;;;;;6.50;5.97;;;;;;;35.05;36.18;100573.44;4986533;28;20538;-84
2022/06/27 09:29:07;;;;;;;7.07;6.47;;;;;;;34.72;35.94;100581.22;4990582;28;20046;-84
2022/06/27 09:31:42;;;;;;;6.88;6.30;;;;;;;34.85;35.66;100572.31;4973090;28;20045;-83
2022/06/27 09:34:23;;;;;;;6.97;6.38;;;;;;;35.05;36.35;100576.19;4958431;28;20088;-82
2022/06/27 09:36:53;;;;;;;6.50;5.90;;;;;;;35.16;34.29;100559.22;4960100;28;20060;-83
2022/06/27 09:39:29;;;;;;;7.22;6.05;;;;;;;35.15;35.60;100565.75;4975437;28;20088;-85
2022/06/27 09:42:01;;;;;;;5.63;5.22;;;;;;;35.26;33.29;100553.41;4973823;28;20046;-83
2022/06/27 09:44:42;;;;;;;6.30;5.70;;;;;;;35.41;33.03;100567.13;4969019;28;20059;-84
2022/06/27 09:47:10;;;;;;;6.50;6.00;;;;;;;35.20;34.47;100563.25;4972367;28;20060;-84
2022/06/27 09:49:39;;;;;;;7.13;6.45;;;;;;;34.88;35.44;100549.97;4974115;28;20580;-84
2022/06/27 09:52:15;;;;;;;5.97;5.53;;;;;;;35.15;34.30;100553.94;4967156;28;20048;-84
2022/06/27 09:54:43;;;;;;;6.95;6.38;;;;;;;35.14;33.67;100555.78;4959177;28;20064;-84
2022/06/27 09:57:11;;;;;;;7.07;6.47;;;;;;;35.35;33.25;100563.22;4975068;28;20058;-84
2022/06/27 09:59:44;;;;;;;6.35;5.75;;;;;;;35.36;32.65;100559.44;4953093;28;20037;-84
2022/06/27 10:02:16;;;;;;;6.03;5.53;;;;;;;35.46;32.70;100551.75;4960038;28;20042;-83
2022/06/27 10:04:45;;;;;;;8.27;5.63;;;;;;;35.42;31.59;100564.19;4956934;28;20372;-83
2022/06/27 10:07:13;;;;;;;6.03;5.47;;;;;;;35.52;30.93;100561.09;4973835;28;20042;-84
2022/06/27 10:09:42;;;;;;;6.20;5.60;;;;;;;35.62;31.90;100561.63;4951490;28;20046;-83
2022/06/27 10:12:26;;;;;;;5.38;4.95;;;;;;;35.76;31.44;100549.69;4990619;28;20049;-85
2022/06/27 10:15:12;;;;;;;6.03;5.53;;;;;;;35.34;29.51;100553.28;4971148;28;20041;-85
2022/06/27 10:17:50;;;;;;;4.78;4.38;;;;;;;35.61;29.15;100548.06;4973344;28;20137;-84
2022/06/27 10:20:20;;;;;;;4.55;4.20;;;;;;;35.57;26.92;100549.50;4957180;28;20730;-85
2022/06/27 10:23:08;;;;;;;4.78;4.35;;;;;;;35.94;28.57;100552.00;4958847;28;20038;-83
2022/06/27 10:25:37;;;;;;;4.40;3.70;;;;;;;35.76;27.34;100530.47;4987152;28;20045;-84
2022/06/27 10:28:10;;;;;;;4.15;3.75;;;;;;;35.74;26.89;100535.31;5004566;28;20034;-83
2022/06/27 10:30:44;;;;;;;4.55;3.38;;;;;;;35.90;27.12;100542.44;4970385;28;20045;-85
2022/06/27 10:33:26;;;;;;;4.32;3.55;;;;;;;36.04;26.80;100549.75;4973439;28;20752;-84
2022/06/27 10:36:11;;;;;;;4.55;4.15;;;;;;;36.24;27.64;100529.75;4977466;28;20054;-85
2022/06/27 10:38:46;;;;;;;4.15;3.85;;;;;;;36.54;28.13;100533.16;4991174;28;20069;-84
2022/06/27 10:41:19;;;;;;;4.85;4.45;;;;;;;36.89;27.67;100526.56;4947178;28;20042;-84
2022/06/27 10:43:46;;;;;;;;;;;;;;;37.11;26.24;100524.50;5066032;23;20042;-78
2022/06/27 10:46:13;;;;;;;4.00;3.70;;;;;;;37.25;27.31;100527.28;4971359;28;19922;-76
2022/06/27 10:48:47;;;;;;;4.95;4.18;;;;;;;37.04;26.14;100522.78;4993962;28;20109;-77
2022/06/27 10:51:31;;;;;;;16.83;5.00;;;;;;;37.16;28.35;100523.88;4945451;28;20046;-77
2022/06/27 10:54:04;;;;;;;4.18;3.78;;;;;;;36.97;26.80;100522.78;4976545;28;20042;-77
2022/06/27 10:56:42;;;;;;;5.43;4.07;;;;;;;36.43;27.56;100509.81;4987583;28;20072;-76
2022/06/27 10:59:15;;;;;;;3.92;3.60;;;;;;;36.48;27.74;100517.44;4977268;28;20045;-76
2022/06/27 11:01:43;;;;;;;5.03;4.47;;;;;;;36.15;27.34;100504.31;4979054;28;20043;-76
2022/06/27 11:04:26;;;;;;;4.72;3.75;;;;;;;36.28;28.85;100507.16;4960027;28;20046;-77
2022/06/27 11:06:59;;;;;;;4.80;4.20;;;;;;;36.75;29.20;100516.53;4962258;28;20101;-77
2022/06/27 11:09:46;;;;;;;4.43;3.90;;;;;;;36.78;27.79;100505.09;4977301;28;20053;-77
2022/06/27 11:12:18;;;;;;;4.80;4.28;;;;;;;35.77;27.31;100490.06;4942229;28;20043;-78
2022/06/27 11:14:52;;;;;;;4.38;4.07;;;;;;;36.20;28.06;100484.47;4974548;28;20042;-80
2022/06/27 11:17:28;;;;;;;10.73;4.40;;;;;;;35.83;27.36;100499.44;4974711;28;20663;-78
2022/06/27 11:20:19;;;;;;;3.83;3.50;;;;;;;35.71;29.41;100494.47;4977448;28;20034;-76
2022/06/27 11:23:06;;;;;;;4.32;3.75;;;;;;;36.02;28.64;100494.09;4982538;28;20042;-78